Time;durP1;ratioP1;P1;durP2;ratioP2;P2;SDS_P1;SDS_P2;PMS_P1;PMS_P2;Temp;Humidity;BMP_temperature;BMP_pressure;BME280_temperature;BME280_humidity;BME280_pressure;Samples;Min_cycle;Max_cycle;Signal;HPM_P1;HPM_P2
2023/05/30 00:02:10;;;;;;;;;;;;;;;16.42;47.94;98312.22;5130292;27;19919;-59
2023/05/30 00:04:39;;;;;;;;;;;;;;;16.59;47.66;98314.75;5154259;27;19948;-58
2023/05/30 00:07:07;;;;;;;;;;;;;;;16.59;47.59;98312.00;5139330;27;19919;-58
2023/05/30 00:09:35;;;;;;;;;;;;;;;16.66;47.48;98320.47;5120404;27;20326;-61
2023/05/30 00:12:05;;;;;;;;;;;;;;;16.42;48.21;98321.25;5137034;27;20356;-59
2023/05/30 00:14:32;;;;;;;;;;;;;;;16.46;48.12;98324.13;5120887;27;19923;-58
2023/05/30 00:17:00;;;;;;;;;;;;;;;16.50;47.88;98314.84;5137406;27;19926;-62
2023/05/30 00:19:28;;;;;;;;;;;;;;;16.37;48.78;98326.94;5150872;27;19919;-59
2023/05/30 00:21:56;;;;;;;;;;;;;;;16.38;48.29;98316.78;5146620;27;19946;-59
2023/05/30 00:24:25;;;;;;;;;;;;;;;16.35;48.62;98322.94;5148585;27;19951;-58
2023/05/30 00:26:53;;;;;;;;;;;;;;;16.12;48.90;98315.09;5134887;27;20298;-63
2023/05/30 00:29:22;;;;;;;;;;;;;;;16.45;47.97;98317.00;5119991;27;19919;-58
2023/05/30 00:31:50;;;;;;;;;;;;;;;16.53;47.83;98316.13;5133738;27;19942;-66
2023/05/30 00:34:18;;;;;;;;;;;;;;;16.30;48.76;98318.47;5122430;27;19930;-59
2023/05/30 00:36:46;;;;;;;;;;;;;;;16.24;48.64;98311.59;5128664;27;19924;-58
2023/05/30 00:39:15;;;;;;;;;;;;;;;16.06;49.15;98310.19;5132237;27;19954;-61
2023/05/30 00:41:42;;;;;;;;;;;;;;;15.91;49.48;98314.34;5152377;27;19934;-65
2023/05/30 00:44:10;;;;;;;;;;;;;;;16.10;49.04;98311.91;5140810;27;20010;-59
2023/05/30 00:46:39;;;;;;;;;;;;;;;16.03;49.37;98317.13;5145134;27;19972;-58
2023/05/30 00:49:10;;;;;;;;;;;;;;;16.12;48.73;98308.81;5130182;27;19923;-59
2023/05/30 00:51:37;;;;;;;;;;;;;;;16.11;48.89;98313.50;5152894;27;19919;-59
2023/05/30 00:54:06;;;;;;;;;;;;;;;16.28;48.75;98322.69;5126267;27;19920;-58
2023/05/30 00:56:33;;;;;;;;;;;;;;;16.27;48.42;98316.41;5143532;27;19947;-60
2023/05/30 00:59:02;;;;;;;;;;;;;;;16.11;49.23;98308.03;5144386;27;19919;-58
2023/05/30 01:01:32;;;;;;;;;;;;;;;16.20;49.03;98316.97;5144836;27;19997;-58
2023/05/30 01:04:01;;;;;;;;;;;;;;;16.14;48.59;98312.84;5137572;27;19926;-59
2023/05/30 01:06:30;;;;;;;;;;;;;;;15.83;50.10;98312.50;5143894;27;20427;-61
2023/05/30 01:08:58;;;;;;;;;;;;;;;15.84;49.63;98319.56;5141785;27;19919;-62
2023/05/30 01:11:28;;;;;;;;;;;;;;;15.73;50.11;98310.16;5130038;27;19923;-58
2023/05/30 01:14:01;;;;;;;;;;;;;;;15.71;49.97;98311.31;5132357;27;19923;-58
2023/05/30 01:16:30;;;;;;;;;;;;;;;15.62;50.37;98307.78;5130326;27;19971;-59
2023/05/30 01:19:02;;;;;;;;;;;;;;;15.41;50.88;98304.25;5125995;27;19992;-63
2023/05/30 01:21:31;;;;;;;;;;;;;;;15.37;50.98;98303.31;5145311;27;20010;-58
2023/05/30 01:24:05;;;;;;;;;;;;;;;15.30;51.22;98301.09;5148031;27;20347;-58
2023/05/30 01:26:36;;;;;;;;;;;;;;;15.32;51.42;98296.09;5143362;27;19930;-58
2023/05/30 01:29:06;;;;;;;;;;;;;;;15.12;51.49;98300.41;5133750;27;19983;-59
2023/05/30 01:31:34;;;;;;;;;;;;;;;15.32;50.88;98298.03;5125076;27;19919;-58
2023/05/30 01:34:01;;;;;;;;;;;;;;;15.38;50.72;98302.97;5130812;27;19930;-59
2023/05/30 01:36:30;;;;;;;;;;;;;;;15.35;50.77;98300.13;5127291;27;19923;-59
2023/05/30 01:38:58;;;;;;;;;;;;;;;14.92;51.94;98296.50;5144739;27;20014;-60
2023/05/30 01:41:28;;;;;;;;;;;;;;;15.25;51.29;98298.56;5130406;27;19961;-59
2023/05/30 01:44:01;;;;;;;;;;;;;;;14.96;51.98;98302.09;5122296;27;20290;-59
2023/05/30 01:46:31;;;;;;;;;;;;;;;14.92;52.13;98301.97;5142023;27;19919;-59
2023/05/30 01:49:16;;;;;;;;;;;;;;;14.74;52.45;98300.44;5130386;27;19919;-58
2023/05/30 01:51:45;;;;;;;;;;;;;;;14.70;52.58;98304.16;5130689;27;19996;-58
2023/05/30 01:54:14;;;;;;;;;;;;;;;14.82;52.27;98305.09;5139413;27;19923;-63
2023/05/30 01:56:43;;;;;;;;;;;;;;;14.96;52.01;98301.31;5155186;27;19987;-63
2023/05/30 01:59:11;;;;;;;;;;;;;;;15.02;51.77;98298.06;5132903;27;19942;-58
2023/05/30 02:01:41;;;;;;;;;;;;;;;15.18;51.15;98290.88;5145610;27;19919;-65
2023/05/30 02:04:09;;;;;;;;;;;;;;;15.15;51.40;98301.69;5131246;27;20033;-59
2023/05/30 02:06:37;;;;;;;;;;;;;;;15.08;51.60;98294.00;5146039;27;19930;-59
2023/05/30 02:09:06;;;;;;;;;;;;;;;15.01;51.84;98301.13;5125730;27;20459;-58
2023/05/30 02:11:33;;;;;;;;;;;;;;;14.96;51.72;98296.63;5120766;27;19969;-59
2023/05/30 02:14:01;;;;;;;;;;;;;;;14.97;51.85;98295.53;5137927;27;19955;-58
2023/05/30 02:16:30;;;;;;;;;;;;;;;14.60;52.76;98299.88;5130584;27;20022;-60
2023/05/30 02:19:00;;;;;;;;;;;;;;;14.58;52.86;98296.66;5152010;27;19919;-59
2023/05/30 02:21:27;;;;;;;;;;;;;;;14.51;52.50;98294.44;5151089;27;19919;-58
2023/05/30 02:23:55;;;;;;;;;;;;;;;14.53;52.78;98288.63;5154382;27;19987;-59
2023/05/30 02:26:25;;;;;;;;;;;;;;;14.50;52.84;98287.38;5137619;27;19919;-58
2023/05/30 02:28:53;;;;;;;;;;;;;;;14.34;53.17;98294.47;5150377;27;20021;-58
2023/05/30 02:31:24;;;;;;;;;;;;;;;14.32;53.22;98293.97;5124853;27;19926;-58
2023/05/30 02:33:52;;;;;;;;;;;;;;;14.32;53.18;98292.03;5130611;27;20013;-57
2023/05/30 02:36:21;;;;;;;;;;;;;;;14.29;53.20;98291.91;5129135;27;19950;-57
2023/05/30 02:38:50;;;;;;;;;;;;;;;14.48;52.69;98286.88;5128625;27;20022;-58
2023/05/30 02:41:18;;;;;;;;;;;;;;;14.26;53.26;98292.56;5131177;27;20379;-58
2023/05/30 02:43:46;;;;;;;;;;;;;;;14.34;53.21;98289.00;5131900;27;19925;-59
2023/05/30 02:46:14;;;;;;;;;;;;;;;14.11;53.85;98294.72;5130000;27;19924;-60
2023/05/30 02:48:42;;;;;;;;;;;;;;;14.15;53.69;98295.63;5126611;27;20283;-57
2023/05/30 02:51:10;;;;;;;;;;;;;;;13.94;53.84;98299.38;5119609;27;19951;-58
2023/05/30 02:53:41;;;;;;;;;;;;;;;13.98;53.91;98295.69;5124548;27;19954;-57
2023/05/30 02:56:10;;;;;;;;;;;;;;;13.92;54.05;98299.72;5130282;27;20272;-58
2023/05/30 02:58:48;;;;;;;;;;;;;;;14.22;53.14;98299.78;5133802;27;20287;-58
2023/05/30 03:01:34;;;;;;;;;;;;;;;14.09;53.48;98294.22;5148629;27;19977;-58
2023/05/30 03:04:03;;;;;;;;;;;;;;;13.70;54.72;98295.25;5130065;27;19919;-58
2023/05/30 03:06:40;;;;;;;;;;;;;;;13.87;54.03;98299.88;5130005;27;20010;-59
2023/05/30 03:09:19;;;;;;;;;;;;;;;14.07;53.48;98304.66;5131631;27;19919;-58
2023/05/30 03:11:46;;;;;;;;;;;;;;;14.24;52.86;98297.56;5132407;27;19919;-61
2023/05/30 03:14:15;;;;;;;;;;;;;;;14.32;52.67;98311.19;5131091;27;20308;-64
2023/05/30 03:16:44;;;;;;;;;;;;;;;13.94;53.81;98304.84;5151345;27;19967;-58
2023/05/30 03:19:15;;;;;;;;;;;;;;;13.93;53.79;98308.69;5127893;27;19965;-60
2023/05/30 03:21:43;;;;;;;;;;;;;;;13.85;54.03;98311.13;5130778;27;20437;-57
2023/05/30 03:24:13;;;;;;;;;;;;;;;13.98;53.71;98308.53;5128448;27;19971;-57
2023/05/30 03:26:45;;;;;;;;;;;;;;;13.82;54.16;98305.50;5122808;27;20628;-67
2023/05/30 03:29:15;;;;;;;;;;;;;;;14.01;53.47;98305.13;5121263;27;19923;-58
2023/05/30 03:31:43;;;;;;;;;;;;;;;13.78;54.10;98312.72;5124086;27;19924;-59
2023/05/30 03:34:11;;;;;;;;;;;;;;;13.98;53.70;98309.34;5128469;27;19976;-65
2023/05/30 03:36:40;;;;;;;;;;;;;;;13.91;53.87;98313.69;5125673;27;19927;-65
2023/05/30 03:39:09;;;;;;;;;;;;;;;13.92;53.59;98309.84;5129142;27;20261;-57
2023/05/30 03:41:37;;;;;;;;;;;;;;;13.91;53.88;98306.31;5126204;27;20375;-58
2023/05/30 03:44:06;;;;;;;;;;;;;;;14.17;52.86;98309.00;5145209;27;19927;-61
2023/05/30 03:46:33;;;;;;;;;;;;;;;14.08;53.10;98310.94;5128634;27;19925;-58
2023/05/30 03:49:03;;;;;;;;;;;;;;;14.20;52.74;98313.00;5123992;27;19965;-58
2023/05/30 03:51:31;;;;;;;;;;;;;;;13.87;53.69;98310.81;5125430;27;19919;-58
2023/05/30 03:54:00;;;;;;;;;;;;;;;13.85;53.95;98313.06;5126329;27;19963;-61
2023/05/30 03:56:28;;;;;;;;;;;;;;;13.59;54.65;98315.81;5123375;27;19937;-60
2023/05/30 03:58:55;;;;;;;;;;;;;;;13.61;54.80;98316.28;5127914;27;19927;-60
2023/05/30 04:01:24;;;;;;;;;;;;;;;13.92;53.77;98312.56;5119851;27;20324;-58
2023/05/30 04:03:52;;;;;;;;;;;;;;;13.91;53.82;98322.69;5118672;27;19926;-58
2023/05/30 04:06:24;;;;;;;;;;;;;;;13.88;53.84;98332.31;5119735;27;20430;-58
2023/05/30 04:08:52;;;;;;;;;;;;;;;14.04;53.51;98324.44;5134489;27;20017;-58
2023/05/30 04:11:23;;;;;;;;;;;;;;;14.19;52.96;98325.84;5126521;27;19955;-57
2023/05/30 04:13:51;;;;;;;;;;;;;;;14.36;52.25;98322.28;5130277;27;19981;-58
2023/05/30 04:16:21;;;;;;;;;;;;;;;14.41;52.21;98325.63;5132324;27;20641;-58
2023/05/30 04:18:50;;;;;;;;;;;;;;;14.46;51.98;98327.41;5134396;27;19919;-60
2023/05/30 04:21:18;;;;;;;;;;;;;;;14.35;52.45;98328.88;5123987;27;19966;-59
2023/05/30 04:23:49;;;;;;;;;;;;;;;14.18;53.42;98334.38;5123738;27;19919;-58
2023/05/30 04:26:18;;;;;;;;;;;;;;;14.23;53.08;98328.75;5124199;27;20375;-67
2023/05/30 04:28:48;;;;;;;;;;;;;;;14.28;52.96;98328.59;5140587;27;20049;-58
2023/05/30 04:31:19;;;;;;;;;;;;;;;14.37;52.76;98338.34;5127156;27;19919;-57
2023/05/30 04:33:52;;;;;;;;;;;;;;;14.49;52.31;98331.41;5123732;27;20002;-57
2023/05/30 04:36:21;;;;;;;;;;;;;;;14.11;53.61;98330.22;5119844;27;19947;-57
2023/05/30 04:38:52;;;;;;;;;;;;;;;14.12;53.66;98329.09;5112248;27;19920;-57
2023/05/30 04:41:24;;;;;;;;;;;;;;;14.04;53.92;98338.09;5115141;27;20018;-58
2023/05/30 04:43:54;;;;;;;;;;;;;;;13.96;54.50;98351.78;5124666;27;19923;-58
2023/05/30 04:46:23;;;;;;;;;;;;;;;14.06;54.71;98345.94;5121371;27;19919;-58
2023/05/30 04:48:53;;;;;;;;;;;;;;;14.13;53.90;98341.63;5123386;27;20352;-66
2023/05/30 04:51:24;;;;;;;;;;;;;;;14.36;52.95;98346.88;5120728;27;20268;-57
2023/05/30 04:53:52;;;;;;;;;;;;;;;14.48;52.67;98352.50;5121525;27;20280;-58
2023/05/30 04:56:20;;;;;;;;;;;;;;;14.49;52.75;98354.13;5127401;27;20011;-62
2023/05/30 04:58:49;;;;;;;;;;;;;;;14.60;52.59;98355.38;5127197;27;19944;-59
2023/05/30 05:01:18;;;;;;;;;;;;;;;14.71;52.26;98355.03;5112964;27;19923;-58
2023/05/30 05:03:46;;;;;;;;;;;;;;;14.32;53.63;98362.31;5128009;27;19923;-60
2023/05/30 05:06:15;;;;;;;;;;;;;;;14.34;53.63;98357.34;5126524;27;20377;-58
2023/05/30 05:08:43;;;;;;;;;;;;;;;14.59;52.95;98361.94;5116371;27;20006;-58
2023/05/30 05:11:11;;;;;;;;;;;;;;;14.70;52.88;98364.31;5131798;27;19969;-57
2023/05/30 05:13:39;;;;;;;;;;;;;;;14.84;52.15;98364.94;5121688;27;19923;-58
2023/05/30 05:16:07;;;;;;;;;;;;;;;14.90;52.15;98369.88;5127061;27;19932;-57
2023/05/30 05:18:34;;;;;;;;;;;;;;;14.87;52.25;98372.50;5119330;27;19923;-58
2023/05/30 05:21:02;;;;;;;;;;;;;;;14.68;53.24;98370.94;5147275;27;20002;-58
2023/05/30 05:23:32;;;;;;;;;;;;;;;14.78;52.95;98377.19;5154617;27;20275;-59
2023/05/30 05:26:00;;;;;;;;;;;;;;;14.32;54.17;98379.50;5149495;27;19970;-60
2023/05/30 05:28:32;;;;;;;;;;;;;;;14.28;54.29;98377.78;5154747;27;19954;-63
2023/05/30 05:31:00;;;;;;;;;;;;;;;14.56;53.92;98373.56;5133667;27;20021;-58
2023/05/30 05:33:27;;;;;;;;;;;;;;;14.87;53.07;98376.03;5148767;27;19923;-64
2023/05/30 05:35:55;;;;;;;;;;;;;;;15.06;52.53;98375.59;5144460;27;19923;-59
2023/05/30 05:38:23;;;;;;;;;;;;;;;15.20;53.86;98375.38;5140445;27;20355;-58
2023/05/30 05:40:52;;;;;;;;;;;;;;;15.22;52.62;98375.84;5118401;27;19919;-60
2023/05/30 05:43:20;;;;;;;;;;;;;;;15.08;52.72;98378.84;5135129;27;19919;-57
2023/05/30 05:45:48;;;;;;;;;;;;;;;15.20;52.32;98378.13;5137755;27;19924;-58
2023/05/30 05:48:16;;;;;;;;;;;;;;;15.13;52.19;98372.38;5147956;27;19931;-58
2023/05/30 05:50:44;;;;;;;;;;;;;;;15.42;51.64;98377.03;5146182;27;20356;-58
2023/05/30 05:53:11;;;;;;;;;;;;;;;15.53;50.93;98381.00;5129337;27;20264;-57
2023/05/30 05:55:39;;;;;;;;;;;;;;;15.61;50.50;98388.34;5141490;27;19923;-58
2023/05/30 05:58:08;;;;;;;;;;;;;;;15.32;51.62;98380.16;5152521;27;19977;-59
2023/05/30 06:00:36;;;;;;;;;;;;;;;15.52;51.27;98379.38;5142362;27;19919;-63
2023/05/30 06:03:04;;;;;;;;;;;;;;;15.67;50.64;98376.09;5143314;27;19926;-58
2023/05/30 06:05:35;;;;;;;;;;;;;;;15.70;50.73;98375.41;5140749;27;19923;-58
2023/05/30 06:08:02;;;;;;;;;;;;;;;15.79;50.51;98378.09;5146246;27;19958;-57
2023/05/30 06:10:31;;;;;;;;;;;;;;;15.97;49.55;98382.28;5144786;27;20010;-57
2023/05/30 06:12:58;;;;;;;;;;;;;;;16.03;49.20;98382.09;5146554;27;19919;-58
2023/05/30 06:15:28;;;;;;;;;;;;;;;16.14;49.55;98389.59;5139902;27;19955;-58
2023/05/30 06:17:56;;;;;;;;;;;;;;;16.15;49.42;98385.72;5126447;27;19927;-59
2023/05/30 06:20:23;;;;;;;;;;;;;;;16.32;49.01;98383.94;5140753;27;20314;-58
2023/05/30 06:22:51;;;;;;;;;;;;;;;16.22;49.03;98388.69;5118637;27;19919;-61
2023/05/30 06:25:19;;;;;;;;;;;;;;;16.45;48.44;98393.78;5139455;27;19983;-65
2023/05/30 06:27:47;;;;;;;;;;;;;;;16.58;48.33;98400.13;5143257;27;19935;-59
2023/05/30 06:30:14;;;;;;;;;;;;;;;16.69;47.64;98395.81;5140250;27;20218;-58
2023/05/30 06:32:44;;;;;;;;;;;;;;;16.54;48.09;98400.00;5138764;27;20252;-58
2023/05/30 06:35:12;;;;;;;;;;;;;;;16.78;46.83;98393.81;5141296;27;19919;-58
2023/05/30 06:37:39;;;;;;;;;;;;;;;16.82;46.57;98396.66;5120252;28;20322;-57
2023/05/30 06:40:09;;;;;;;;;;;;;;;16.84;44.97;98394.41;5138892;27;19942;-58
2023/05/30 06:42:37;;;;;;;;;;;;;;;16.79;44.37;98391.88;5127483;27;19919;-58
2023/05/30 06:45:05;;;;;;;;;;;;;;;16.87;43.80;98394.50;5122284;27;19961;-58
2023/05/30 06:47:33;;;;;;;;;;;;;;;16.89;44.39;98400.47;5156456;27;19919;-57
2023/05/30 06:50:02;;;;;;;;;;;;;;;17.07;44.54;98392.81;5143609;27;19920;-58
2023/05/30 06:52:30;;;;;;;;;;;;;;;17.22;43.20;98394.88;5142005;27;19962;-58
2023/05/30 06:54:58;;;;;;;;;;;;;;;17.17;43.47;98397.06;5122529;27;19919;-62
2023/05/30 06:57:25;;;;;;;;;;;;;;;17.36;42.83;98393.72;5143253;27;19996;-57
2023/05/30 06:59:54;;;;;;;;;;;;;;;17.43;42.34;98404.97;5140787;27;19974;-57
2023/05/30 07:02:22;;;;;;;;;;;;;;;17.57;42.73;98399.88;5143273;27;19926;-58
2023/05/30 07:04:50;;;;;;;;;;;;;;;17.60;42.43;98398.41;5151315;27;19919;-57
2023/05/30 07:07:21;;;;;;;;;;;;;;;17.68;42.28;98400.22;5136683;27;19920;-58
2023/05/30 07:09:49;;;;;;;;;;;;;;;17.83;41.88;98401.47;5145324;27;19927;-57
2023/05/30 07:12:17;;;;;;;;;;;;;;;17.88;42.22;98398.50;5140145;27;19942;-58
2023/05/30 07:14:45;;;;;;;;;;;;;;;17.95;41.57;98398.69;5139292;27;19966;-57
2023/05/30 07:17:13;;;;;;;;;;;;;;;18.12;41.05;98398.44;5145688;27;19926;-58
2023/05/30 07:19:41;;;;;;;;;;;;;;;18.12;40.18;98403.13;5119305;27;19945;-58
2023/05/30 07:22:08;;;;;;;;;;;;;;;18.21;40.23;98399.06;5118675;27;19924;-58
2023/05/30 07:24:38;;;;;;;;;;;;;;;18.09;41.05;98393.63;5113775;27;19926;-57
2023/05/30 07:27:06;;;;;;;;;;;;;;;18.23;40.72;98399.53;5124707;27;20014;-60
2023/05/30 07:29:36;;;;;;;;;;;;;;;18.37;40.75;98392.81;5115303;27;19926;-57
2023/05/30 07:32:05;;;;;;;;;;;;;;;18.48;40.46;98385.66;5114000;27;20268;-58
2023/05/30 07:34:33;;;;;;;;;;;;;;;18.47;40.23;98387.59;5127839;27;19927;-57
2023/05/30 07:37:01;;;;;;;;;;;;;;;18.60;40.27;98391.13;5130740;27;20367;-59
2023/05/30 07:39:29;;;;;;;;;;;;;;;18.38;39.57;98387.00;5127748;27;20299;-59
2023/05/30 07:41:58;;;;;;;;;;;;;;;18.20;39.68;98380.97;5121074;27;19919;-59
2023/05/30 07:44:25;;;;;;;;;;;;;;;18.31;39.58;98384.81;5120491;27;19919;-61
2023/05/30 07:46:53;;;;;;;;;;;;;;;18.45;39.95;98394.63;5119221;27;20329;-58
2023/05/30 07:49:21;;;;;;;;;;;;;;;18.49;39.71;98395.53;5130997;27;19923;-58
2023/05/30 07:51:49;;;;;;;;;;;;;;;18.58;39.50;98385.16;5127938;27;19949;-57
2023/05/30 07:54:17;;;;;;;;;;;;;;;18.57;39.45;98394.56;5114375;27;20010;-58
2023/05/30 07:56:45;;;;;;;;;;;;;;;18.66;39.25;98395.22;5122389;27;19920;-58
2023/05/30 07:59:15;;;;;;;;;;;;;;;18.65;38.26;98388.09;5128170;27;19949;-58
2023/05/30 08:01:45;;;;;;;;;;;;;;;18.79;37.77;98382.97;5130699;27;19925;-58
2023/05/30 08:04:12;;;;;;;;;;;;;;;18.74;36.32;98391.50;5122234;27;19927;-61
2023/05/30 08:06:40;;;;;;;;;;;;;;;18.80;35.96;98390.13;5125303;27;20031;-58
2023/05/30 08:09:08;;;;;;;;;;;;;;;18.84;35.47;98388.22;5114225;27;19919;-58
2023/05/30 08:11:36;;;;;;;;;;;;;;;19.01;36.19;98383.53;5121522;27;19920;-57
2023/05/30 08:14:04;;;;;;;;;;;;;;;19.05;36.27;98378.91;5114522;27;19989;-57
2023/05/30 08:16:34;;;;;;;;;;;;;;;19.20;35.84;98391.88;5128437;27;20284;-57
2023/05/30 08:19:01;;;;;;;;;;;;;;;18.92;35.98;98382.94;5113553;27;19927;-58
2023/05/30 08:21:31;;;;;;;;;;;;;;;19.02;36.58;98391.47;5134610;27;19919;-57
2023/05/30 08:24:00;;;;;;;;;;;;;;;19.37;35.76;98385.19;5132853;27;19973;-57
2023/05/30 08:26:32;;;;;;;;;;;;;;;19.31;34.97;98389.38;5140973;27;19923;-57
2023/05/30 08:29:00;;;;;;;;;;;;;;;19.17;34.18;98386.28;5143277;27;19954;-59
2023/05/30 08:31:28;;;;;;;;;;;;;;;19.20;34.29;98380.88;5143663;27;19919;-57
2023/05/30 08:33:57;;;;;;;;;;;;;;;19.41;34.44;98390.81;5143381;27;20011;-58
2023/05/30 08:36:25;;;;;;;;;;;;;;;19.54;34.27;98389.53;5137357;27;19950;-58
2023/05/30 08:38:55;;;;;;;;;;;;;;;19.53;34.01;98393.44;5142907;27;19928;-58
2023/05/30 08:41:40;;;;;;;;;;;;;;;19.52;33.68;98386.34;5132027;27;19919;-63
2023/05/30 08:44:09;;;;;;;;;;;;;;;19.60;33.97;98379.84;5150626;27;19919;-58
2023/05/30 08:46:39;;;;;;;;;;;;;;;19.68;33.73;98381.63;5145414;27;19919;-60
2023/05/30 08:49:09;;;;;;;;;;;;;;;19.47;33.88;98394.88;5136297;27;19923;-65
2023/05/30 08:51:37;;;;;;;;;;;;;;;19.36;33.86;98384.41;5144372;27;19919;-62
2023/05/30 08:54:05;;;;;;;;;;;;;;;19.52;33.66;98383.56;5121863;27;19919;-62
2023/05/30 08:56:33;;;;;;;;;;;;;;;19.57;33.70;98391.56;5145825;27;19926;-57
2023/05/30 08:59:02;;;;;;;;;;;;;;;19.74;33.74;98384.88;5144423;27;19925;-58
2023/05/30 09:01:30;;;;;;;;;;;;;;;19.69;34.37;98394.22;5141796;27;19923;-57
2023/05/30 09:03:58;;;;;;;;;;;;;;;19.77;34.18;98381.41;5146783;27;19971;-62
2023/05/30 09:06:28;;;;;;;;;;;;;;;19.89;34.55;98379.31;5132940;27;19930;-58
2023/05/30 09:08:55;;;;;;;;;;;;;;;19.73;33.96;98373.06;5146897;27;19931;-58
2023/05/30 09:11:23;;;;;;;;;;;;;;;19.93;34.11;98384.13;5135461;27;19947;-57
2023/05/30 09:13:52;;;;;;;;;;;;;;;20.08;34.12;98386.00;5132260;27;19924;-57
2023/05/30 09:16:20;;;;;;;;;;;;;;;19.93;34.87;98373.09;5130617;27;19965;-57
2023/05/30 09:18:48;;;;;;;;;;;;;;;20.04;34.21;98382.38;5134946;27;19920;-57
2023/05/30 09:21:16;;;;;;;;;;;;;;;20.06;34.29;98377.31;5130076;27;19919;-58
2023/05/30 09:23:47;;;;;;;;;;;;;;;19.94;34.29;98380.19;5116262;27;20431;-58
2023/05/30 09:26:15;;;;;;;;;;;;;;;20.03;34.63;98370.56;5133525;27;19938;-58
2023/05/30 09:28:45;;;;;;;;;;;;;;;20.23;34.82;98382.38;5140754;27;19926;-57
2023/05/30 09:31:13;;;;;;;;;;;;;;;20.25;34.60;98382.81;5135137;27;19979;-58
2023/05/30 09:33:41;;;;;;;;;;;;;;;20.29;34.35;98386.44;5153320;27;19950;-58
2023/05/30 09:36:18;;;;;;;;;;;;;;;20.25;34.90;98382.03;5140714;27;19976;-58
2023/05/30 09:38:54;;;;;;;;;;;;;;;20.23;34.40;98376.06;5150129;27;19919;-58
2023/05/30 09:41:22;;;;;;;;;;;;;;;20.41;34.29;98382.75;5118244;27;20078;-58
2023/05/30 09:43:53;;;;;;;;;;;;;;;20.41;34.39;98378.03;5126364;27;19938;-58
2023/05/30 09:46:21;;;;;;;;;;;;;;;20.47;33.97;98384.06;5137696;27;19923;-57
2023/05/30 09:48:52;;;;;;;;;;;;;;;20.43;33.89;98388.69;5132181;27;19923;-59
2023/05/30 09:51:20;;;;;;;;;;;;;;;20.46;33.60;98384.41;5138103;27;20002;-57
2023/05/30 09:53:56;;;;;;;;;;;;;;;20.38;33.82;98387.00;5146117;27;19919;-59
2023/05/30 09:56:30;;;;;;;;;;;;;;;20.38;33.85;98381.50;5123249;28;19923;-58
2023/05/30 09:59:01;;;;;;;;;;;;;;;20.36;34.40;98381.06;5149014;27;19923;-59
2023/05/30 10:01:35;;;;;;;;;;;;;;;20.60;34.31;98384.69;5138103;27;19919;-59
2023/05/30 10:04:10;;;;;;;;;;;;;;;20.69;33.64;98376.19;5114143;28;19986;-57
2023/05/30 10:06:40;;;;;;;;;;;;;;;20.70;33.49;98378.56;5119287;28;19923;-63
2023/05/30 10:09:09;;;;;;;;;;;;;;;20.78;32.78;98374.00;5131898;27;19954;-59
2023/05/30 10:11:38;;;;;;;;;;;;;;;20.86;33.13;98381.22;5141254;27;20360;-59
2023/05/30 10:14:06;;;;;;;;;;;;;;;20.65;33.24;98376.91;5130900;27;20353;-57
2023/05/30 10:16:34;;;;;;;;;;;;;;;20.72;33.47;98380.97;5135017;27;19924;-58
2023/05/30 10:19:03;;;;;;;;;;;;;;;20.77;33.26;98373.16;5142476;27;19926;-57
2023/05/30 10:21:32;;;;;;;;;;;;;;;20.85;33.14;98377.66;5144785;27;19923;-58
2023/05/30 10:24:00;;;;;;;;;;;;;;;20.87;33.21;98385.56;5136577;27;19920;-59
2023/05/30 10:26:30;;;;;;;;;;;;;;;20.70;32.66;98384.09;5142636;27;19948;-57
2023/05/30 10:28:58;;;;;;;;;;;;;;;20.81;32.75;98376.78;5138672;27;20345;-60
2023/05/30 10:31:26;;;;;;;;;;;;;;;20.91;33.15;98378.94;5115114;27;20345;-61
2023/05/30 10:33:54;;;;;;;;;;;;;;;20.94;33.18;98374.66;5152021;27;20351;-58
2023/05/30 10:36:24;;;;;;;;;;;;;;;20.85;34.44;98369.38;5153259;27;20433;-63
2023/05/30 10:38:53;;;;;;;;;;;;;;;20.92;34.92;98379.75;5156126;27;20402;-58
2023/05/30 10:41:24;;;;;;;;;;;;;;;20.89;34.71;98375.78;5130755;27;20360;-57
2023/05/30 10:43:56;;;;;;;;;;;;;;;20.92;34.88;98369.50;5134468;27;19989;-60
2023/05/30 10:46:25;;;;;;;;;;;;;;;20.94;34.63;98374.66;5148151;27;20379;-62
2023/05/30 10:48:54;;;;;;;;;;;;;;;20.83;35.12;98371.72;5142245;27;19950;-57
2023/05/30 10:51:22;;;;;;;;;;;;;;;20.99;34.77;98374.38;5139284;27;19947;-57
2023/05/30 10:53:50;;;;;;;;;;;;;;;20.82;34.74;98372.06;5140860;27;19919;-58
2023/05/30 10:56:39;;;;;;;;;;;;;;;20.80;35.21;98363.38;5136427;27;19935;-58
2023/05/30 10:59:15;;;;;;;;;;;;;;;20.83;34.87;98366.19;5135201;27;20007;-58
2023/05/30 11:01:59;;;;;;;;;;;;;;;20.92;34.80;98361.22;5134401;27;19954;-57
2023/05/30 11:04:29;;;;;;;;;;;;;;;20.95;34.30;98361.66;5120631;27;19919;-58
2023/05/30 11:06:57;;;;;;;;;;;;;;;21.01;34.30;98355.44;5116384;27;20360;-58
2023/05/30 11:09:25;;;;;;;;;;;;;;;20.88;34.37;98357.59;5134699;27;19954;-57
2023/05/30 11:11:55;;;;;;;;;;;;;;;20.91;34.22;98361.59;5134683;27;19951;-57
2023/05/30 11:14:26;;;;;;;;;;;;;;;21.04;34.08;98343.66;5115515;27;20013;-58
2023/05/30 11:16:58;;;;;;;;;;;;;;;21.13;33.57;98351.69;5142156;27;20447;-60
2023/05/30 11:19:26;;;;;;;;;;;;;;;20.98;33.79;98341.56;5140461;27;19951;-61
2023/05/30 11:21:55;;;;;;;;;;;;;;;20.85;33.72;98339.00;5139436;27;19927;-65
2023/05/30 11:24:23;;;;;;;;;;;;;;;20.83;34.54;98338.59;5152810;27;20313;-57
2023/05/30 11:26:54;;;;;;;;;;;;;;;20.99;33.51;98343.97;5134070;27;20010;-58
2023/05/30 11:29:33;;;;;;;;;;;;;;;20.90;33.40;98343.41;5131761;27;19987;-58
2023/05/30 11:32:01;;;;;;;;;;;;;;;21.12;33.21;98339.03;5143124;27;20018;-59
2023/05/30 11:34:29;;;;;;;;;;;;;;;21.18;33.14;98332.03;5148882;27;19919;-60
2023/05/30 11:36:57;;;;;;;;;;;;;;;21.18;32.70;98329.25;5136095;27;19973;-58
2023/05/30 11:39:25;;;;;;;;;;;;;;;21.26;32.70;98333.75;5134397;27;19919;-57
2023/05/30 11:41:54;;;;;;;;;;;;;;;21.20;32.63;98326.94;5133234;27;20468;-57
2023/05/30 11:44:21;;;;;;;;;;;;;;;20.90;32.80;98327.66;5140551;27;19919;-60
2023/05/30 11:47:00;;;;;;;;;;;;;;;20.89;33.48;98337.09;5142458;27;19956;-57
2023/05/30 11:49:28;;;;;;;;;;;;;;;21.04;33.50;98329.84;5126529;27;20025;-58
2023/05/30 11:51:56;;;;;;;;;;;;;;;21.28;32.82;98327.84;5142384;27;19919;-58
2023/05/30 11:54:24;;;;;;;;;;;;;;;21.38;32.51;98318.94;5137957;27;19931;-57
2023/05/30 11:56:52;;;;;;;;;;;;;;;21.53;32.07;98333.78;5132821;27;19924;-60
2023/05/30 11:59:23;;;;;;;;;;;;;;;21.38;32.04;98322.50;5139882;27;19941;-59
2023/05/30 12:01:52;;;;;;;;;;;;;;;21.29;32.17;98319.16;5140968;27;19972;-58
2023/05/30 12:04:25;;;;;;;;;;;;;;;21.30;32.02;98322.75;5142577;27;19919;-58
2023/05/30 12:06:53;;;;;;;;;;;;;;;21.45;31.89;98324.56;5141293;27;19924;-61
2023/05/30 12:09:21;;;;;;;;;;;;;;;21.56;32.00;98322.75;5138239;27;19923;-57
2023/05/30 12:11:51;;;;;;;;;;;;;;;21.56;32.05;98319.19;5140138;27;19926;-57
2023/05/30 12:14:21;;;;;;;;;;;;;;;21.48;32.15;98314.75;5140503;27;20310;-57
2023/05/30 12:16:54;;;;;;;;;;;;;;;21.41;31.73;98324.53;5141326;27;19926;-57
2023/05/30 12:19:21;;;;;;;;;;;;;;;21.26;32.10;98319.13;5141646;27;19929;-58
2023/05/30 12:21:52;;;;;;;;;;;;;;;21.38;32.13;98325.25;5140637;27;19923;-58
2023/05/30 12:24:22;;;;;;;;;;;;;;;21.66;31.90;98319.31;5133135;27;19923;-58
2023/05/30 12:26:50;;;;;;;;;;;;;;;21.67;31.66;98306.28;5144846;27;19950;-58
2023/05/30 12:29:18;;;;;;;;;;;;;;;21.58;31.79;98306.59;5139656;27;19919;-58
2023/05/30 12:31:47;;;;;;;;;;;;;;;21.60;31.46;98306.22;5154432;27;19919;-58
2023/05/30 12:34:15;;;;;;;;;;;;;;;21.61;31.96;98302.28;5145679;27;19971;-58
2023/05/30 12:36:42;;;;;;;;;;;;;;;21.65;31.66;98308.66;5121260;27;19919;-57
2023/05/30 12:39:12;;;;;;;;;;;;;;;21.56;31.67;98311.69;5136737;27;20372;-58
2023/05/30 12:41:42;;;;;;;;;;;;;;;21.64;31.90;98312.59;5133933;27;19919;-57
2023/05/30 12:44:16;;;;;;;;;;;;;;;21.74;31.13;98302.84;5140146;27;20009;-57
2023/05/30 12:46:44;;;;;;;;;;;;;;;21.88;31.33;98309.31;5145780;27;20540;-58
2023/05/30 12:49:11;;;;;;;;;;;;;;;21.82;30.86;98310.84;5134628;27;20353;-58
2023/05/30 12:51:40;;;;;;;;;;;;;;;21.80;31.04;98307.66;5133009;27;19919;-57
2023/05/30 12:54:10;;;;;;;;;;;;;;;21.75;30.31;98305.22;5131298;27;19919;-57
2023/05/30 12:56:39;;;;;;;;;;;;;;;21.42;30.62;98320.59;5132665;27;19919;-57
2023/05/30 12:59:07;;;;;;;;;;;;;;;21.45;30.37;98319.81;5136093;27;19923;-57